sensor_id;sensor_type;location;lat;lon;timestamp;P1;durP1;ratioP1;P2;durP2;ratioP2
37407;SDS011;24866;50.248;8.252;2023-02-01T00:02:12;10.20;;;5.07;;
37407;SDS011;24866;50.248;8.252;2023-02-01T00:04:42;8.77;;;5.55;;
37407;SDS011;24866;50.248;8.252;2023-02-01T00:07:14;8.27;;;4.40;;
37407;SDS011;24866;50.248;8.252;2023-02-01T00:09:43;8.88;;;5.28;;
37407;SDS011;24866;50.248;8.252;2023-02-01T00:12:13;9.52;;;5.55;;
37407;SDS011;24866;50.248;8.252;2023-02-01T00:14:43;8.25;;;4.63;;
37407;SDS011;24866;50.248;8.252;2023-02-01T00:17:13;11.13;;;5.00;;
37407;SDS011;24866;50.248;8.252;2023-02-01T00:19:43;9.35;;;4.75;;
37407;SDS011;24866;50.248;8.252;2023-02-01T00:22:14;9.25;;;5.50;;
37407;SDS011;24866;50.248;8.252;2023-02-01T00:24:44;10.35;;;4.55;;
37407;SDS011;24866;50.248;8.252;2023-02-01T00:27:14;7.43;;;3.92;;
37407;SDS011;24866;50.248;8.252;2023-02-01T00:29:48;9.68;;;4.82;;
37407;SDS011;24866;50.248;8.252;2023-02-01T00:32:18;6.63;;;3.67;;
37407;SDS011;24866;50.248;8.252;2023-02-01T00:34:48;6.57;;;4.00;;
37407;SDS011;24866;50.248;8.252;2023-02-01T00:37:19;7.05;;;4.45;;
37407;SDS011;24866;50.248;8.252;2023-02-01T00:39:49;8.20;;;3.78;;
37407;SDS011;24866;50.248;8.252;2023-02-01T00:42:22;8.48;;;3.92;;
37407;SDS011;24866;50.248;8.252;2023-02-01T00:44:52;6.82;;;3.67;;
37407;SDS011;24866;50.248;8.252;2023-02-01T00:47:22;5.85;;;3.55;;
37407;SDS011;24866;50.248;8.252;2023-02-01T00:49:52;6.93;;;3.38;;
37407;SDS011;24866;50.248;8.252;2023-02-01T00:52:24;7.80;;;2.92;;
37407;SDS011;24866;50.248;8.252;2023-02-01T00:54:54;6.63;;;3.43;;
37407;SDS011;24866;50.248;8.252;2023-02-01T00:57:24;9.10;;;3.95;;
37407;SDS011;24866;50.248;8.252;2023-02-01T00:59:54;7.30;;;3.78;;
37407;SDS011;24866;50.248;8.252;2023-02-01T01:02:25;6.63;;;3.55;;
37407;SDS011;24866;50.248;8.252;2023-02-01T01:04:55;7.00;;;3.20;;
37407;SDS011;24866;50.248;8.252;2023-02-01T01:07:27;4.95;;;2.70;;
37407;SDS011;24866;50.248;8.252;2023-02-01T01:09:57;6.20;;;2.78;;
37407;SDS011;24866;50.248;8.252;2023-02-01T01:12:27;8.95;;;3.92;;
37407;SDS011;24866;50.248;8.252;2023-02-01T01:14:57;7.47;;;3.67;;
37407;SDS011;24866;50.248;8.252;2023-02-01T01:17:26;6.38;;;3.25;;
37407;SDS011;24866;50.248;8.252;2023-02-01T01:19:56;8.25;;;3.95;;
37407;SDS011;24866;50.248;8.252;2023-02-01T01:22:28;11.10;;;4.50;;
37407;SDS011;24866;50.248;8.252;2023-02-01T01:24:57;8.50;;;3.90;;
37407;SDS011;24866;50.248;8.252;2023-02-01T01:27:27;8.10;;;4.65;;
37407;SDS011;24866;50.248;8.252;2023-02-01T01:29:57;7.53;;;3.53;;
37407;SDS011;24866;50.248;8.252;2023-02-01T01:32:27;8.43;;;3.80;;
37407;SDS011;24866;50.248;8.252;2023-02-01T01:34:57;6.07;;;3.97;;
37407;SDS011;24866;50.248;8.252;2023-02-01T01:37:28;7.05;;;3.83;;
37407;SDS011;24866;50.248;8.252;2023-02-01T01:39:58;7.63;;;4.40;;
37407;SDS011;24866;50.248;8.252;2023-02-01T01:42:28;8.93;;;4.88;;
37407;SDS011;24866;50.248;8.252;2023-02-01T01:45:00;6.28;;;3.92;;
37407;SDS011;24866;50.248;8.252;2023-02-01T01:47:33;9.60;;;5.28;;
37407;SDS011;24866;50.248;8.252;2023-02-01T01:50:07;9.77;;;3.60;;
37407;SDS011;24866;50.248;8.252;2023-02-01T01:52:40;9.07;;;3.40;;
37407;SDS011;24866;50.248;8.252;2023-02-01T01:55:13;5.55;;;3.70;;
37407;SDS011;24866;50.248;8.252;2023-02-01T01:57:45;9.15;;;4.30;;
37407;SDS011;24866;50.248;8.252;2023-02-01T02:00:22;5.57;;;2.53;;
37407;SDS011;24866;50.248;8.252;2023-02-01T02:02:53;7.80;;;4.80;;
37407;SDS011;24866;50.248;8.252;2023-02-01T02:05:27;5.40;;;3.13;;
37407;SDS011;24866;50.248;8.252;2023-02-01T02:07:59;6.28;;;3.00;;
37407;SDS011;24866;50.248;8.252;2023-02-01T02:10:29;9.15;;;3.70;;
37407;SDS011;24866;50.248;8.252;2023-02-01T02:13:15;6.93;;;3.97;;
37407;SDS011;24866;50.248;8.252;2023-02-01T02:15:49;8.25;;;4.45;;
37407;SDS011;24866;50.248;8.252;2023-02-01T02:18:27;7.68;;;3.97;;
37407;SDS011;24866;50.248;8.252;2023-02-01T02:21:11;6.60;;;2.83;;
37407;SDS011;24866;50.248;8.252;2023-02-01T02:30:02;5.55;;;2.38;;
37407;SDS011;24866;50.248;8.252;2023-02-01T02:36:02;10.75;;;2.80;;
37407;SDS011;24866;50.248;8.252;2023-02-01T02:38:41;8.13;;;2.88;;
37407;SDS011;24866;50.248;8.252;2023-02-01T02:41:19;7.43;;;2.95;;
37407;SDS011;24866;50.248;8.252;2023-02-01T02:44:13;16.40;;;2.92;;
37407;SDS011;24866;50.248;8.252;2023-02-01T02:47:11;7.20;;;3.10;;
37407;SDS011;24866;50.248;8.252;2023-02-01T02:50:00;9.23;;;3.03;;
37407;SDS011;24866;50.248;8.252;2023-02-01T02:52:56;11.93;;;2.50;;
37407;SDS011;24866;50.248;8.252;2023-02-01T02:55:49;8.10;;;3.45;;
37407;SDS011;24866;50.248;8.252;2023-02-01T02:58:35;7.25;;;2.30;;
37407;SDS011;24866;50.248;8.252;2023-02-01T03:01:22;7.10;;;2.80;;
37407;SDS011;24866;50.248;8.252;2023-02-01T03:04:10;11.40;;;3.30;;
37407;SDS011;24866;50.248;8.252;2023-02-01T03:06:46;5.22;;;2.60;;
37407;SDS011;24866;50.248;8.252;2023-02-01T03:09:18;8.23;;;3.30;;
37407;SDS011;24866;50.248;8.252;2023-02-01T03:11:52;6.65;;;2.05;;
37407;SDS011;24866;50.248;8.252;2023-02-01T03:14:46;10.82;;;3.00;;
37407;SDS011;24866;50.248;8.252;2023-02-01T03:17:32;5.82;;;3.00;;
37407;SDS011;24866;50.248;8.252;2023-02-01T03:20:07;12.25;;;2.97;;
37407;SDS011;24866;50.248;8.252;2023-02-01T03:22:42;11.60;;;3.10;;
37407;SDS011;24866;50.248;8.252;2023-02-01T03:25:14;6.10;;;2.50;;
37407;SDS011;24866;50.248;8.252;2023-02-01T03:27:51;10.05;;;3.33;;
37407;SDS011;24866;50.248;8.252;2023-02-01T03:30:24;11.38;;;2.90;;
37407;SDS011;24866;50.248;8.252;2023-02-01T03:32:56;4.00;;;2.23;;
37407;SDS011;24866;50.248;8.252;2023-02-01T03:38:03;7.07;;;3.60;;
37407;SDS011;24866;50.248;8.252;2023-02-01T03:40:42;6.00;;;2.92;;
37407;SDS011;24866;50.248;8.252;2023-02-01T03:43:18;4.55;;;1.85;;
37407;SDS011;24866;50.248;8.252;2023-02-01T03:45:50;9.38;;;2.83;;
37407;SDS011;24866;50.248;8.252;2023-02-01T03:48:23;7.80;;;2.80;;
37407;SDS011;24866;50.248;8.252;2023-02-01T03:50:56;17.33;;;3.47;;
37407;SDS011;24866;50.248;8.252;2023-02-01T03:53:30;7.85;;;2.83;;
37407;SDS011;24866;50.248;8.252;2023-02-01T03:56:04;5.15;;;2.30;;
37407;SDS011;24866;50.248;8.252;2023-02-01T03:58:35;9.50;;;2.72;;
37407;SDS011;24866;50.248;8.252;2023-02-01T04:01:05;12.50;;;3.10;;
37407;SDS011;24866;50.248;8.252;2023-02-01T04:03:36;11.77;;;3.40;;
37407;SDS011;24866;50.248;8.252;2023-02-01T04:06:05;10.25;;;2.55;;
37407;SDS011;24866;50.248;8.252;2023-02-01T04:08:37;7.65;;;2.92;;
37407;SDS011;24866;50.248;8.252;2023-02-01T04:11:07;3.33;;;1.65;;
37407;SDS011;24866;50.248;8.252;2023-02-01T04:13:37;9.43;;;3.22;;
37407;SDS011;24866;50.248;8.252;2023-02-01T04:16:07;8.90;;;2.90;;
37407;SDS011;24866;50.248;8.252;2023-02-01T04:18:37;8.57;;;2.15;;
37407;SDS011;24866;50.248;8.252;2023-02-01T04:21:07;8.15;;;2.95;;
37407;SDS011;24866;50.248;8.252;2023-02-01T04:23:38;10.48;;;2.95;;
37407;SDS011;24866;50.248;8.252;2023-02-01T04:26:08;6.38;;;1.80;;
37407;SDS011;24866;50.248;8.252;2023-02-01T04:28:38;8.52;;;2.78;;
37407;SDS011;24866;50.248;8.252;2023-02-01T04:31:09;9.43;;;2.17;;
37407;SDS011;24866;50.248;8.252;2023-02-01T04:33:39;11.82;;;3.92;;
37407;SDS011;24866;50.248;8.252;2023-02-01T04:36:09;14.18;;;2.40;;
37407;SDS011;24866;50.248;8.252;2023-02-01T04:38:40;6.20;;;1.60;;
37407;SDS011;24866;50.248;8.252;2023-02-01T04:41:10;8.15;;;2.05;;
37407;SDS011;24866;50.248;8.252;2023-02-01T04:43:40;12.27;;;3.00;;
37407;SDS011;24866;50.248;8.252;2023-02-01T04:46:10;9.05;;;3.13;;
37407;SDS011;24866;50.248;8.252;2023-02-01T04:48:40;10.57;;;3.28;;
37407;SDS011;24866;50.248;8.252;2023-02-01T04:51:10;7.80;;;2.47;;
37407;SDS011;24866;50.248;8.252;2023-02-01T04:53:42;12.13;;;2.97;;
37407;SDS011;24866;50.248;8.252;2023-02-01T04:56:12;13.90;;;3.42;;
37407;SDS011;24866;50.248;8.252;2023-02-01T04:58:42;10.10;;;2.65;;
37407;SDS011;24866;50.248;8.252;2023-02-01T05:01:12;12.02;;;3.30;;
37407;SDS011;24866;50.248;8.252;2023-02-01T05:03:42;9.20;;;2.28;;
37407;SDS011;24866;50.248;8.252;2023-02-01T05:06:13;13.85;;;2.85;;
37407;SDS011;24866;50.248;8.252;2023-02-01T05:08:44;12.27;;;3.25;;
37407;SDS011;24866;50.248;8.252;2023-02-01T05:11:14;9.95;;;3.15;;
37407;SDS011;24866;50.248;8.252;2023-02-01T05:13:58;11.43;;;2.58;;
37407;SDS011;24866;50.248;8.252;2023-02-01T05:16:28;10.57;;;2.28;;
37407;SDS011;24866;50.248;8.252;2023-02-01T05:18:58;9.10;;;3.17;;
37407;SDS011;24866;50.248;8.252;2023-02-01T05:21:28;13.55;;;2.08;;
37407;SDS011;24866;50.248;8.252;2023-02-01T05:23:59;7.50;;;2.65;;
37407;SDS011;24866;50.248;8.252;2023-02-01T05:26:40;13.05;;;2.55;;
37407;SDS011;24866;50.248;8.252;2023-02-01T05:29:11;10.60;;;2.85;;
37407;SDS011;24866;50.248;8.252;2023-02-01T05:31:41;9.45;;;2.53;;
37407;SDS011;24866;50.248;8.252;2023-02-01T05:34:13;14.30;;;3.75;;
37407;SDS011;24866;50.248;8.252;2023-02-01T05:36:44;7.07;;;2.80;;
37407;SDS011;24866;50.248;8.252;2023-02-01T05:39:15;9.52;;;2.08;;
37407;SDS011;24866;50.248;8.252;2023-02-01T05:41:45;8.90;;;1.83;;
37407;SDS011;24866;50.248;8.252;2023-02-01T05:44:15;12.30;;;2.60;;
37407;SDS011;24866;50.248;8.252;2023-02-01T05:46:45;13.75;;;2.90;;
37407;SDS011;24866;50.248;8.252;2023-02-01T05:49:15;15.45;;;2.95;;
37407;SDS011;24866;50.248;8.252;2023-02-01T05:51:45;8.60;;;3.00;;
37407;SDS011;24866;50.248;8.252;2023-02-01T05:54:16;11.80;;;3.88;;
37407;SDS011;24866;50.248;8.252;2023-02-01T05:56:46;16.83;;;2.97;;
37407;SDS011;24866;50.248;8.252;2023-02-01T05:59:16;16.77;;;3.80;;
37407;SDS011;24866;50.248;8.252;2023-02-01T06:01:45;14.48;;;3.67;;
37407;SDS011;24866;50.248;8.252;2023-02-01T06:04:15;14.38;;;4.10;;
37407;SDS011;24866;50.248;8.252;2023-02-01T06:06:45;10.27;;;3.08;;
37407;SDS011;24866;50.248;8.252;2023-02-01T06:09:19;17.25;;;3.78;;
37407;SDS011;24866;50.248;8.252;2023-02-01T06:11:49;12.60;;;4.43;;
37407;SDS011;24866;50.248;8.252;2023-02-01T06:14:19;12.60;;;3.63;;
37407;SDS011;24866;50.248;8.252;2023-02-01T06:16:49;10.05;;;3.05;;
37407;SDS011;24866;50.248;8.252;2023-02-01T06:19:19;11.80;;;4.05;;
37407;SDS011;24866;50.248;8.252;2023-02-01T06:21:49;16.65;;;3.65;;
37407;SDS011;24866;50.248;8.252;2023-02-01T06:24:21;14.68;;;3.22;;
37407;SDS011;24866;50.248;8.252;2023-02-01T06:26:51;13.70;;;3.42;;
37407;SDS011;24866;50.248;8.252;2023-02-01T06:29:21;8.30;;;2.40;;
37407;SDS011;24866;50.248;8.252;2023-02-01T06:31:50;12.82;;;3.25;;
37407;SDS011;24866;50.248;8.252;2023-02-01T06:34:21;10.15;;;3.17;;
37407;SDS011;24866;50.248;8.252;2023-02-01T06:36:51;9.68;;;2.70;;
37407;SDS011;24866;50.248;8.252;2023-02-01T06:39:24;15.98;;;3.80;;
37407;SDS011;24866;50.248;8.252;2023-02-01T06:44:25;16.42;;;3.63;;
37407;SDS011;24866;50.248;8.252;2023-02-01T06:46:55;11.68;;;3.75;;
37407;SDS011;24866;50.248;8.252;2023-02-01T06:49:25;15.60;;;3.50;;
37407;SDS011;24866;50.248;8.252;2023-02-01T06:51:55;10.98;;;2.83;;
37407;SDS011;24866;50.248;8.252;2023-02-01T06:54:26;9.00;;;1.55;;
37407;SDS011;24866;50.248;8.252;2023-02-01T06:56:56;8.60;;;2.00;;
37407;SDS011;24866;50.248;8.252;2023-02-01T06:59:26;10.77;;;2.65;;
37407;SDS011;24866;50.248;8.252;2023-02-01T07:01:56;9.63;;;2.75;;
37407;SDS011;24866;50.248;8.252;2023-02-01T07:04:25;4.38;;;1.75;;
37407;SDS011;24866;50.248;8.252;2023-02-01T07:06:55;13.40;;;2.80;;
37407;SDS011;24866;50.248;8.252;2023-02-01T07:09:27;11.65;;;2.90;;
37407;SDS011;24866;50.248;8.252;2023-02-01T07:11:56;11.13;;;2.78;;
37407;SDS011;24866;50.248;8.252;2023-02-01T07:14:26;13.20;;;2.50;;
37407;SDS011;24866;50.248;8.252;2023-02-01T07:16:57;9.65;;;2.28;;
37407;SDS011;24866;50.248;8.252;2023-02-01T07:19:26;12.98;;;2.22;;
37407;SDS011;24866;50.248;8.252;2023-02-01T07:21:57;11.23;;;2.33;;
37407;SDS011;24866;50.248;8.252;2023-02-01T07:24:28;12.48;;;3.28;;
37407;SDS011;24866;50.248;8.252;2023-02-01T07:26:59;11.05;;;3.75;;
37407;SDS011;24866;50.248;8.252;2023-02-01T07:29:29;7.43;;;1.85;;
37407;SDS011;24866;50.248;8.252;2023-02-01T07:31:59;18.17;;;1.95;;
37407;SDS011;24866;50.248;8.252;2023-02-01T07:34:30;16.17;;;3.20;;
37407;SDS011;24866;50.248;8.252;2023-02-01T07:37:00;9.00;;;2.83;;
37407;SDS011;24866;50.248;8.252;2023-02-01T07:39:32;11.32;;;3.45;;
37407;SDS011;24866;50.248;8.252;2023-02-01T07:42:02;10.23;;;2.25;;
37407;SDS011;24866;50.248;8.252;2023-02-01T07:44:32;13.45;;;3.45;;
37407;SDS011;24866;50.248;8.252;2023-02-01T07:47:02;9.30;;;1.98;;
37407;SDS011;24866;50.248;8.252;2023-02-01T07:49:32;7.95;;;1.75;;
37407;SDS011;24866;50.248;8.252;2023-02-01T07:52:02;10.98;;;2.88;;
37407;SDS011;24866;50.248;8.252;2023-02-01T07:54:33;13.68;;;3.40;;
37407;SDS011;24866;50.248;8.252;2023-02-01T07:57:03;9.15;;;1.98;;
37407;SDS011;24866;50.248;8.252;2023-02-01T07:59:33;13.00;;;2.72;;
37407;SDS011;24866;50.248;8.252;2023-02-01T08:02:03;12.27;;;2.70;;
37407;SDS011;24866;50.248;8.252;2023-02-01T08:04:32;15.50;;;1.92;;
37407;SDS011;24866;50.248;8.252;2023-02-01T08:07:02;8.38;;;2.65;;
37407;SDS011;24866;50.248;8.252;2023-02-01T08:09:33;6.95;;;1.95;;
37407;SDS011;24866;50.248;8.252;2023-02-01T08:12:03;13.75;;;3.45;;
37407;SDS011;24866;50.248;8.252;2023-02-01T08:14:33;10.57;;;3.28;;
37407;SDS011;24866;50.248;8.252;2023-02-01T08:17:03;8.65;;;2.47;;
37407;SDS011;24866;50.248;8.252;2023-02-01T08:19:33;13.20;;;2.75;;
37407;SDS011;24866;50.248;8.252;2023-02-01T08:22:03;8.90;;;2.75;;
37407;SDS011;24866;50.248;8.252;2023-02-01T08:24:36;11.02;;;2.33;;
37407;SDS011;24866;50.248;8.252;2023-02-01T08:27:07;13.13;;;2.63;;
37407;SDS011;24866;50.248;8.252;2023-02-01T08:29:37;8.82;;;2.08;;
37407;SDS011;24866;50.248;8.252;2023-02-01T08:32:07;7.95;;;2.55;;
37407;SDS011;24866;50.248;8.252;2023-02-01T08:34:37;16.08;;;2.85;;
37407;SDS011;24866;50.248;8.252;2023-02-01T08:37:07;10.55;;;2.58;;
37407;SDS011;24866;50.248;8.252;2023-02-01T08:39:39;8.10;;;2.17;;
37407;SDS011;24866;50.248;8.252;2023-02-01T08:42:11;9.05;;;2.35;;
37407;SDS011;24866;50.248;8.252;2023-02-01T08:44:58;9.77;;;2.38;;
37407;SDS011;24866;50.248;8.252;2023-02-01T08:47:28;15.20;;;3.67;;
37407;SDS011;24866;50.248;8.252;2023-02-01T08:49:59;10.82;;;2.70;;
37407;SDS011;24866;50.248;8.252;2023-02-01T08:52:29;5.35;;;2.58;;
37407;SDS011;24866;50.248;8.252;2023-02-01T08:55:00;12.23;;;2.13;;
37407;SDS011;24866;50.248;8.252;2023-02-01T08:57:30;8.40;;;2.33;;
37407;SDS011;24866;50.248;8.252;2023-02-01T09:00:00;11.65;;;3.00;;
37407;SDS011;24866;50.248;8.252;2023-02-01T09:02:32;8.00;;;2.47;;
37407;SDS011;24866;50.248;8.252;2023-02-01T09:05:02;13.93;;;2.00;;
37407;SDS011;24866;50.248;8.252;2023-02-01T09:07:32;12.57;;;2.45;;
37407;SDS011;24866;50.248;8.252;2023-02-01T09:10:05;7.85;;;2.30;;
37407;SDS011;24866;50.248;8.252;2023-02-01T09:12:35;10.82;;;2.10;;
37407;SDS011;24866;50.248;8.252;2023-02-01T09:15:06;12.82;;;2.05;;
37407;SDS011;24866;50.248;8.252;2023-02-01T09:17:36;9.93;;;1.98;;
37407;SDS011;24866;50.248;8.252;2023-02-01T09:20:07;11.63;;;3.30;;
37407;SDS011;24866;50.248;8.252;2023-02-01T09:22:38;11.77;;;3.28;;
37407;SDS011;24866;50.248;8.252;2023-02-01T09:25:10;6.88;;;2.25;;
37407;SDS011;24866;50.248;8.252;2023-02-01T09:27:40;10.05;;;2.55;;
37407;SDS011;24866;50.248;8.252;2023-02-01T09:30:10;14.45;;;3.08;;
37407;SDS011;24866;50.248;8.252;2023-02-01T09:32:41;11.13;;;2.50;;
37407;SDS011;24866;50.248;8.252;2023-02-01T09:35:11;9.95;;;2.90;;
37407;SDS011;24866;50.248;8.252;2023-02-01T09:37:41;6.72;;;2.28;;
37407;SDS011;24866;50.248;8.252;2023-02-01T09:40:14;12.65;;;2.28;;
37407;SDS011;24866;50.248;8.252;2023-02-01T09:42:53;7.57;;;2.13;;
37407;SDS011;24866;50.248;8.252;2023-02-01T09:45:38;13.63;;;2.78;;
37407;SDS011;24866;50.248;8.252;2023-02-01T09:48:16;9.73;;;2.28;;
37407;SDS011;24866;50.248;8.252;2023-02-01T09:50:50;11.27;;;2.05;;
37407;SDS011;24866;50.248;8.252;2023-02-01T09:53:25;15.85;;;3.53;;
37407;SDS011;24866;50.248;8.252;2023-02-01T09:56:01;12.63;;;2.38;;
37407;SDS011;24866;50.248;8.252;2023-02-01T09:58:35;14.20;;;2.55;;
37407;SDS011;24866;50.248;8.252;2023-02-01T10:01:19;9.48;;;2.20;;
37407;SDS011;24866;50.248;8.252;2023-02-01T10:03:51;9.02;;;2.10;;
37407;SDS011;24866;50.248;8.252;2023-02-01T10:06:35;6.88;;;2.28;;
37407;SDS011;24866;50.248;8.252;2023-02-01T10:09:15;7.28;;;1.80;;
37407;SDS011;24866;50.248;8.252;2023-02-01T10:12:16;8.75;;;1.73;;
37407;SDS011;24866;50.248;8.252;2023-02-01T10:15:12;10.13;;;2.35;;
37407;SDS011;24866;50.248;8.252;2023-02-01T10:17:53;11.63;;;2.70;;
37407;SDS011;24866;50.248;8.252;2023-02-01T10:20:36;11.80;;;2.05;;
37407;SDS011;24866;50.248;8.252;2023-02-01T10:23:22;18.40;;;1.98;;
37407;SDS011;24866;50.248;8.252;2023-02-01T10:26:05;12.85;;;2.72;;
37407;SDS011;24866;50.248;8.252;2023-02-01T10:28:44;9.95;;;2.35;;
37407;SDS011;24866;50.248;8.252;2023-02-01T10:31:18;10.65;;;2.15;;
37407;SDS011;24866;50.248;8.252;2023-02-01T10:33:55;8.93;;;1.58;;
37407;SDS011;24866;50.248;8.252;2023-02-01T10:36:27;12.13;;;3.47;;
37407;SDS011;24866;50.248;8.252;2023-02-01T10:39:00;8.10;;;1.92;;
37407;SDS011;24866;50.248;8.252;2023-02-01T10:41:32;11.52;;;2.13;;
37407;SDS011;24866;50.248;8.252;2023-02-01T10:44:07;5.70;;;1.80;;
37407;SDS011;24866;50.248;8.252;2023-02-01T10:46:41;16.40;;;2.83;;
37407;SDS011;24866;50.248;8.252;2023-02-01T10:49:12;13.98;;;2.70;;
37407;SDS011;24866;50.248;8.252;2023-02-01T10:51:47;8.10;;;1.60;;
37407;SDS011;24866;50.248;8.252;2023-02-01T10:54:33;8.68;;;1.92;;
37407;SDS011;24866;50.248;8.252;2023-02-01T10:57:07;10.82;;;1.92;;
37407;SDS011;24866;50.248;8.252;2023-02-01T10:59:39;8.30;;;1.80;;
37407;SDS011;24866;50.248;8.252;2023-02-01T11:02:15;14.25;;;2.47;;
37407;SDS011;24866;50.248;8.252;2023-02-01T11:04:49;11.70;;;1.98;;
37407;SDS011;24866;50.248;8.252;2023-02-01T11:07:22;9.82;;;2.03;;
37407;SDS011;24866;50.248;8.252;2023-02-01T11:09:54;9.02;;;1.95;;
37407;SDS011;24866;50.248;8.252;2023-02-01T11:12:30;7.78;;;2.42;;
37407;SDS011;24866;50.248;8.252;2023-02-01T11:15:12;7.47;;;1.73;;
37407;SDS011;24866;50.248;8.252;2023-02-01T11:17:47;9.88;;;2.53;;
37407;SDS011;24866;50.248;8.252;2023-02-01T11:23:02;15.02;;;2.88;;
37407;SDS011;24866;50.248;8.252;2023-02-01T11:25:32;17.33;;;3.17;;
37407;SDS011;24866;50.248;8.252;2023-02-01T11:28:05;6.95;;;2.13;;
37407;SDS011;24866;50.248;8.252;2023-02-01T11:30:38;11.13;;;2.20;;
37407;SDS011;24866;50.248;8.252;2023-02-01T11:33:13;7.38;;;1.58;;
37407;SDS011;24866;50.248;8.252;2023-02-01T11:35:45;10.48;;;2.05;;
37407;SDS011;24866;50.248;8.252;2023-02-01T11:38:20;5.73;;;1.10;;
37407;SDS011;24866;50.248;8.252;2023-02-01T11:40:53;8.50;;;1.60;;
37407;SDS011;24866;50.248;8.252;2023-02-01T11:43:24;10.30;;;1.63;;
37407;SDS011;24866;50.248;8.252;2023-02-01T11:45:58;7.93;;;1.50;;
37407;SDS011;24866;50.248;8.252;2023-02-01T11:48:30;4.47;;;1.10;;
37407;SDS011;24866;50.248;8.252;2023-02-01T11:51:08;11.65;;;3.35;;
37407;SDS011;24866;50.248;8.252;2023-02-01T11:53:57;7.97;;;1.77;;
37407;SDS011;24866;50.248;8.252;2023-02-01T11:56:41;9.35;;;2.25;;
37407;SDS011;24866;50.248;8.252;2023-02-01T11:59:19;5.82;;;2.15;;
37407;SDS011;24866;50.248;8.252;2023-02-01T12:02:08;13.43;;;2.67;;
37407;SDS011;24866;50.248;8.252;2023-02-01T12:04:56;9.02;;;2.67;;
37407;SDS011;24866;50.248;8.252;2023-02-01T12:07:46;5.82;;;1.60;;
37407;SDS011;24866;50.248;8.252;2023-02-01T12:10:32;3.97;;;1.80;;
37407;SDS011;24866;50.248;8.252;2023-02-01T12:13:13;10.25;;;1.23;;
37407;SDS011;24866;50.248;8.252;2023-02-01T12:15:54;11.02;;;2.08;;
37407;SDS011;24866;50.248;8.252;2023-02-01T12:18:51;10.73;;;2.42;;
37407;SDS011;24866;50.248;8.252;2023-02-01T12:21:46;11.05;;;1.90;;
37407;SDS011;24866;50.248;8.252;2023-02-01T12:24:29;7.07;;;1.95;;
37407;SDS011;24866;50.248;8.252;2023-02-01T12:27:23;7.00;;;1.75;;
37407;SDS011;24866;50.248;8.252;2023-02-01T12:30:24;9.48;;;2.30;;
37407;SDS011;24866;50.248;8.252;2023-02-01T12:33:06;5.65;;;1.35;;
37407;SDS011;24866;50.248;8.252;2023-02-01T12:35:49;9.95;;;1.85;;
37407;SDS011;24866;50.248;8.252;2023-02-01T12:41:42;8.32;;;1.90;;
37407;SDS011;24866;50.248;8.252;2023-02-01T12:44:23;10.32;;;2.70;;
37407;SDS011;24866;50.248;8.252;2023-02-01T12:47:03;9.30;;;1.95;;
37407;SDS011;24866;50.248;8.252;2023-02-01T12:49:43;9.52;;;2.97;;
37407;SDS011;24866;50.248;8.252;2023-02-01T12:52:20;13.05;;;2.40;;
37407;SDS011;24866;50.248;8.252;2023-02-01T12:54:55;10.82;;;2.63;;
37407;SDS011;24866;50.248;8.252;2023-02-01T12:57:30;12.43;;;3.03;;
37407;SDS011;24866;50.248;8.252;2023-02-01T13:00:06;8.13;;;2.53;;
37407;SDS011;24866;50.248;8.252;2023-02-01T13:02:51;10.90;;;2.28;;
37407;SDS011;24866;50.248;8.252;2023-02-01T13:05:27;6.95;;;1.83;;
37407;SDS011;24866;50.248;8.252;2023-02-01T13:08:02;7.78;;;1.58;;
37407;SDS011;24866;50.248;8.252;2023-02-01T13:10:36;6.55;;;1.42;;
37407;SDS011;24866;50.248;8.252;2023-02-01T13:13:11;8.93;;;1.88;;
37407;SDS011;24866;50.248;8.252;2023-02-01T13:15:48;8.15;;;1.55;;
37407;SDS011;24866;50.248;8.252;2023-02-01T13:18:24;8.95;;;2.28;;
37407;SDS011;24866;50.248;8.252;2023-02-01T13:21:02;7.45;;;1.73;;
37407;SDS011;24866;50.248;8.252;2023-02-01T13:23:37;17.55;;;2.00;;
37407;SDS011;24866;50.248;8.252;2023-02-01T13:26:08;8.80;;;1.98;;
37407;SDS011;24866;50.248;8.252;2023-02-01T13:28:40;5.22;;;1.30;;
37407;SDS011;24866;50.248;8.252;2023-02-01T13:31:20;9.65;;;2.05;;
37407;SDS011;24866;50.248;8.252;2023-02-01T13:34:37;15.10;;;2.67;;
37407;SDS011;24866;50.248;8.252;2023-02-01T13:37:31;10.48;;;2.10;;
37407;SDS011;24866;50.248;8.252;2023-02-01T13:40:21;5.50;;;1.35;;
37407;SDS011;24866;50.248;8.252;2023-02-01T13:43:11;14.23;;;2.75;;
37407;SDS011;24866;50.248;8.252;2023-02-01T13:45:45;11.52;;;2.05;;
37407;SDS011;24866;50.248;8.252;2023-02-01T13:48:20;9.10;;;1.85;;
37407;SDS011;24866;50.248;8.252;2023-02-01T13:50:54;8.20;;;1.73;;
37407;SDS011;24866;50.248;8.252;2023-02-01T13:53:28;4.63;;;1.52;;
37407;SDS011;24866;50.248;8.252;2023-02-01T13:56:01;7.82;;;2.22;;
37407;SDS011;24866;50.248;8.252;2023-02-01T13:58:35;7.05;;;2.17;;
37407;SDS011;24866;50.248;8.252;2023-02-01T14:04:03;8.55;;;2.20;;
37407;SDS011;24866;50.248;8.252;2023-02-01T14:06:36;9.00;;;2.08;;
37407;SDS011;24866;50.248;8.252;2023-02-01T14:15:23;6.88;;;1.30;;
37407;SDS011;24866;50.248;8.252;2023-02-01T14:17:54;5.25;;;1.83;;
37407;SDS011;24866;50.248;8.252;2023-02-01T14:23:24;8.93;;;1.88;;
37407;SDS011;24866;50.248;8.252;2023-02-01T14:26:02;5.53;;;1.45;;
37407;SDS011;24866;50.248;8.252;2023-02-01T14:28:43;8.93;;;2.03;;
37407;SDS011;24866;50.248;8.252;2023-02-01T14:31:35;11.15;;;1.63;;
37407;SDS011;24866;50.248;8.252;2023-02-01T14:34:16;8.77;;;2.00;;
37407;SDS011;24866;50.248;8.252;2023-02-01T14:36:54;12.93;;;1.92;;
37407;SDS011;24866;50.248;8.252;2023-02-01T14:39:29;7.90;;;1.55;;
37407;SDS011;24866;50.248;8.252;2023-02-01T14:42:04;6.25;;;2.42;;
37407;SDS011;24866;50.248;8.252;2023-02-01T14:44:46;8.07;;;2.03;;
37407;SDS011;24866;50.248;8.252;2023-02-01T14:50:07;10.27;;;1.42;;
37407;SDS011;24866;50.248;8.252;2023-02-01T14:52:49;8.13;;;2.20;;
37407;SDS011;24866;50.248;8.252;2023-02-01T14:55:28;11.20;;;1.80;;
37407;SDS011;24866;50.248;8.252;2023-02-01T14:58:05;4.20;;;1.02;;
37407;SDS011;24866;50.248;8.252;2023-02-01T15:00:47;8.25;;;2.00;;
37407;SDS011;24866;50.248;8.252;2023-02-01T15:03:25;7.25;;;1.60;;
37407;SDS011;24866;50.248;8.252;2023-02-01T15:06:13;9.65;;;2.45;;
37407;SDS011;24866;50.248;8.252;2023-02-01T15:08:56;4.78;;;1.90;;
37407;SDS011;24866;50.248;8.252;2023-02-01T15:11:28;8.60;;;2.15;;
37407;SDS011;24866;50.248;8.252;2023-02-01T15:13:58;9.25;;;1.83;;
37407;SDS011;24866;50.248;8.252;2023-02-01T15:16:29;5.20;;;1.52;;
37407;SDS011;24866;50.248;8.252;2023-02-01T15:19:10;6.70;;;1.55;;
37407;SDS011;24866;50.248;8.252;2023-02-01T15:21:43;3.80;;;0.82;;
37407;SDS011;24866;50.248;8.252;2023-02-01T15:24:19;6.50;;;1.52;;
37407;SDS011;24866;50.248;8.252;2023-02-01T15:26:51;9.32;;;2.08;;
37407;SDS011;24866;50.248;8.252;2023-02-01T15:29:22;4.90;;;1.38;;
37407;SDS011;24866;50.248;8.252;2023-02-01T15:31:55;10.15;;;1.80;;
37407;SDS011;24866;50.248;8.252;2023-02-01T15:34:43;7.47;;;1.40;;
37407;SDS011;24866;50.248;8.252;2023-02-01T15:37:14;7.90;;;1.80;;
37407;SDS011;24866;50.248;8.252;2023-02-01T15:40:02;9.32;;;1.60;;
37407;SDS011;24866;50.248;8.252;2023-02-01T15:42:40;8.45;;;1.35;;
37407;SDS011;24866;50.248;8.252;2023-02-01T15:45:20;7.20;;;1.90;;
37407;SDS011;24866;50.248;8.252;2023-02-01T15:47:52;7.60;;;2.03;;
37407;SDS011;24866;50.248;8.252;2023-02-01T15:50:32;6.95;;;1.75;;
37407;SDS011;24866;50.248;8.252;2023-02-01T15:53:02;9.30;;;2.30;;
37407;SDS011;24866;50.248;8.252;2023-02-01T15:55:34;12.25;;;2.40;;
37407;SDS011;24866;50.248;8.252;2023-02-01T15:58:06;7.07;;;1.40;;
37407;SDS011;24866;50.248;8.252;2023-02-01T16:00:41;7.65;;;1.80;;
37407;SDS011;24866;50.248;8.252;2023-02-01T16:03:24;4.53;;;1.00;;